Time;durP1;ratioP1;P1;durP2;ratioP2;P2;SDS_P1;SDS_P2;PMS_P1;PMS_P2;Temp;Humidity;BMP_temperature;BMP_pressure;BME280_temperature;BME280_humidity;BME280_pressure;Samples;Min_cycle;Max_cycle;Signal;HPM_P1;HPM_P2
2023/08/19 00:01:03;;;;;;;43.28;37.78;;;20.90;99.90;;;;;;5024203;28;20030;-54
2023/08/19 00:03:30;;;;;;;54.65;45.00;;;20.90;99.90;;;;;;5016616;28;20096;-53
2023/08/19 00:05:58;;;;;;;44.05;39.47;;;20.90;99.90;;;;;;4992101;28;20077;-54
2023/08/19 00:08:24;;;;;;;47.35;42.25;;;20.80;99.90;;;;;;5016773;28;20051;-53
2023/08/19 00:10:49;;;;;;;53.83;42.88;;;20.80;99.90;;;;;;5031892;28;20044;-52
2023/08/19 00:13:15;;;;;;;48.05;42.95;;;20.80;99.90;;;;;;5027125;28;20638;-54
2023/08/19 00:15:41;;;;;;;39.25;35.13;;;20.80;99.90;;;;;;5031042;28;20096;-54
2023/08/19 00:18:06;;;;;;;52.30;42.05;;;20.80;99.90;;;;;;5031717;28;20041;-50
2023/08/19 00:20:32;;;;;;;44.63;39.85;;;20.80;99.90;;;;;;5016606;28;20034;-51
2023/08/19 00:22:59;;;;;;;49.33;43.90;;;20.80;99.90;;;;;;5034841;28;20121;-53
2023/08/19 00:25:25;;;;;;;51.65;44.10;;;20.80;99.90;;;;;;5028404;28;20049;-55
2023/08/19 00:27:52;;;;;;;46.00;40.47;;;20.80;99.90;;;;;;5023649;28;20508;-51
2023/08/19 00:30:18;;;;;;;43.08;38.38;;;20.80;99.90;;;;;;5032124;28;20044;-54
2023/08/19 00:32:44;;;;;;;42.75;37.90;;;20.80;99.90;;;;;;5017298;28;20034;-53
2023/08/19 00:35:10;;;;;;;39.60;35.38;;;20.70;99.90;;;;;;5023599;28;20073;-53
2023/08/19 00:37:36;;;;;;;38.67;34.80;;;20.70;99.90;;;;;;5006716;28;20037;-54
2023/08/19 00:40:05;;;;;;;50.13;42.80;;;20.70;99.90;;;;;;5009546;28;20041;-54
2023/08/19 00:42:31;;;;;;;40.80;36.05;;;20.70;99.90;;;;;;5010297;28;20124;-54
2023/08/19 00:44:57;;;;;;;49.25;43.40;;;20.70;99.90;;;;;;5028792;28;20116;-51
2023/08/19 00:47:24;;;;;;;45.38;39.97;;;20.70;99.90;;;;;;5028236;28;20485;-53
2023/08/19 00:49:51;;;;;;;39.47;35.22;;;20.70;99.90;;;;;;5022232;28;20586;-53
2023/08/19 00:52:18;;;;;;;43.35;37.88;;;20.60;99.90;;;;;;5029986;28;20157;-53
2023/08/19 00:54:44;;;;;;;44.05;37.42;;;20.70;99.90;;;;;;5003221;28;20042;-51
2023/08/19 00:57:11;;;;;;;39.88;34.13;;;20.60;99.90;;;;;;5024951;28;20041;-51
2023/08/19 00:59:37;;;;;;;48.97;41.88;;;20.60;99.90;;;;;;5025128;28;20037;-51
2023/08/19 01:02:42;;;;;;;46.58;41.55;;;20.60;99.90;;;;;;5012569;28;20044;-51
2023/08/19 01:05:08;;;;;;;41.08;36.58;;;20.70;99.90;;;;;;5024333;28;20605;-50
2023/08/19 01:07:51;;;;;;;54.33;44.20;;;20.60;99.90;;;;;;5033454;28;20377;-53
2023/08/19 01:10:17;;;;;;;55.13;44.55;;;20.60;99.90;;;;;;5029154;28;20041;-50
2023/08/19 01:12:47;;;;;;;42.50;38.03;;;20.60;99.90;;;;;;5020093;28;20047;-51
2023/08/19 01:15:19;;;;;;;40.10;36.03;;;20.60;99.90;;;;;;5008091;28;20038;-50
2023/08/19 01:17:51;;;;;;;41.42;36.58;;;20.50;99.90;;;;;;5011781;28;20384;-53
2023/08/19 01:20:18;;;;;;;35.03;31.27;;;20.60;99.90;;;;;;5022260;28;20041;-53
2023/08/19 01:22:56;;;;;;;38.05;34.05;;;20.50;99.90;;;;;;5023904;28;20081;-54
2023/08/19 01:25:24;;;;;;;49.33;40.47;;;20.50;99.90;;;;;;5028579;28;20045;-53
2023/08/19 01:27:49;;;;;;;44.63;39.83;;;20.50;99.90;;;;;;5026243;28;20041;-54
2023/08/19 01:30:15;;;;;;;41.65;37.22;;;20.50;99.90;;;;;;5025425;28;20501;-52
2023/08/19 01:32:43;;;;;;;35.28;31.65;;;20.50;99.90;;;;;;5025495;28;20128;-52
2023/08/19 01:35:10;;;;;;;43.95;39.25;;;20.50;99.90;;;;;;5007106;28;20404;-52
2023/08/19 01:37:39;;;;;;;40.47;36.22;;;20.40;99.90;;;;;;5030471;28;20477;-53
2023/08/19 01:40:10;;;;;;;39.08;35.10;;;20.40;99.90;;;;;;5026733;28;20559;-52
2023/08/19 01:42:35;;;;;;;39.03;34.80;;;20.40;99.90;;;;;;5022049;28;20111;-55
2023/08/19 01:45:03;;;;;;;37.63;33.70;;;20.40;99.90;;;;;;5012075;28;20045;-50
2023/08/19 01:48:18;;;;;;;43.50;38.15;;;20.40;99.90;;;;;;5027880;28;20505;-51
2023/08/19 01:50:44;;;;;;;38.75;34.75;;;20.40;99.90;;;;;;5026200;28;20044;-52
2023/08/19 01:53:10;;;;;;;36.97;33.05;;;20.30;99.90;;;;;;5025715;28;20389;-53
2023/08/19 01:55:35;;;;;;;39.63;35.25;;;20.30;99.90;;;;;;5009856;28;20052;-51
2023/08/19 01:58:01;;;;;;;40.05;35.85;;;20.30;99.90;;;;;;5022000;28;20314;-52
2023/08/19 02:00:28;;;;;;;37.35;33.42;;;20.30;99.90;;;;;;5026027;28;20519;-53
2023/08/19 02:02:53;;;;;;;42.65;38.25;;;20.30;99.90;;;;;;5024545;28;20049;-54
2023/08/19 02:05:19;;;;;;;44.85;38.40;;;20.40;99.90;;;;;;5026348;28;20059;-51
2023/08/19 02:07:45;;;;;;;46.50;38.88;;;20.40;99.90;;;;;;5027545;28;20511;-54
2023/08/19 02:10:13;;;;;;;40.28;35.30;;;20.40;99.90;;;;;;5023103;28;20500;-54
2023/08/19 02:12:39;;;;;;;38.60;34.47;;;20.30;99.90;;;;;;5019790;28;20505;-55
2023/08/19 02:15:05;;;;;;;51.63;42.35;;;20.40;99.90;;;;;;5014961;28;20044;-53
2023/08/19 02:17:31;;;;;;;42.45;37.42;;;20.30;99.90;;;;;;4989402;28;20125;-55
2023/08/19 02:19:57;;;;;;;46.55;41.55;;;20.30;99.90;;;;;;5015039;28;20048;-55
2023/08/19 02:22:22;;;;;;;38.70;34.28;;;20.30;99.90;;;;;;5017664;28;20443;-52
2023/08/19 02:24:48;;;;;;;50.78;42.47;;;20.30;99.90;;;;;;5003878;28;20227;-53
2023/08/19 02:27:15;;;;;;;51.80;42.72;;;20.30;99.90;;;;;;5015905;28;20120;-56
2023/08/19 02:29:41;;;;;;;36.42;32.63;;;20.30;99.90;;;;;;5019308;28;20048;-53
2023/08/19 02:32:07;;;;;;;36.08;32.20;;;20.30;99.90;;;;;;5015082;28;20345;-55
2023/08/19 02:34:32;;;;;;;39.63;34.80;;;20.30;99.90;;;;;;5013792;28;20111;-54
2023/08/19 02:36:58;;;;;;;49.65;41.13;;;20.30;99.90;;;;;;5020211;28;20069;-54
2023/08/19 02:40:00;;;;;;;47.92;41.85;;;20.20;99.90;;;;;;5024788;28;20153;-55
2023/08/19 02:42:26;;;;;;;51.05;42.80;;;20.20;99.90;;;;;;5010421;28;20443;-54
2023/08/19 02:44:52;;;;;;;53.83;42.55;;;20.20;99.90;;;;;;5021111;28;20041;-55
2023/08/19 02:47:17;;;;;;;42.47;36.78;;;20.20;99.90;;;;;;5003739;28;20096;-54
2023/08/19 02:49:43;;;;;;;43.30;38.60;;;20.20;99.90;;;;;;5002206;28;20042;-54
2023/08/19 02:52:09;;;;;;;44.38;36.67;;;20.20;99.90;;;;;;5016589;28;20064;-55
2023/08/19 02:54:35;;;;;;;49.80;40.88;;;20.20;99.90;;;;;;5019195;28;20037;-54
2023/08/19 02:57:01;;;;;;;44.92;36.72;;;20.20;99.90;;;;;;5017165;28;20455;-54
2023/08/19 02:59:27;;;;;;;47.08;40.55;;;20.20;99.90;;;;;;5006408;28;20041;-55
2023/08/19 03:01:52;;;;;;;44.63;37.20;;;20.20;99.90;;;;;;5003943;28;20045;-55
2023/08/19 03:04:18;;;;;;;40.13;35.10;;;20.10;99.90;;;;;;5019968;28;20140;-55
2023/08/19 03:06:45;;;;;;;39.10;35.00;;;20.20;99.90;;;;;;5002197;28;20040;-55
2023/08/19 03:09:10;;;;;;;45.55;38.90;;;20.10;99.90;;;;;;5018215;28;20041;-54
2023/08/19 03:11:36;;;;;;;39.88;33.50;;;20.10;99.90;;;;;;5004962;28;20041;-55
2023/08/19 03:14:02;;;;;;;40.25;35.85;;;20.10;99.90;;;;;;5020858;28;20049;-55
2023/08/19 03:16:28;;;;;;;39.55;34.92;;;20.10;99.90;;;;;;5020951;28;20047;-53
2023/08/19 03:18:54;;;;;;;41.58;37.25;;;20.20;99.90;;;;;;5025008;28;20060;-54
2023/08/19 03:21:19;;;;;;;35.33;31.45;;;20.10;99.90;;;;;;5025546;28;20048;-55
2023/08/19 03:23:45;;;;;;;35.30;31.52;;;20.20;99.90;;;;;;5025254;28;20555;-52
2023/08/19 03:26:11;;;;;;;37.65;33.30;;;20.20;99.90;;;;;;5026959;28;20030;-53
2023/08/19 03:28:37;;;;;;;37.15;33.30;;;20.20;99.90;;;;;;5028998;28;20080;-53
2023/08/19 03:31:25;;;;;;;32.38;29.10;;;20.20;99.90;;;;;;5028714;28;20068;-51
2023/08/19 03:33:53;;;;;;;41.03;36.60;;;20.20;99.90;;;;;;5023549;28;20117;-55
2023/08/19 03:36:18;;;;;;;38.05;33.28;;;20.20;99.90;;;;;;5026028;28;20034;-52
2023/08/19 03:38:44;;;;;;;35.72;31.95;;;20.30;99.90;;;;;;5024399;28;20048;-55
2023/08/19 03:41:10;;;;;;;32.65;28.95;;;20.30;99.90;;;;;;5021313;28;20056;-54
2023/08/19 03:43:35;;;;;;;30.65;27.35;;;20.30;99.90;;;;;;5026456;28;20392;-55
2023/08/19 03:46:01;;;;;;;36.00;32.22;;;20.30;99.90;;;;;;5025928;28;20037;-54
2023/08/19 03:48:27;;;;;;;38.58;33.85;;;20.40;99.90;;;;;;5025463;28;20045;-55
2023/08/19 03:50:53;;;;;;;34.60;30.98;;;20.30;99.90;;;;;;5004592;28;20041;-52
2023/08/19 03:53:18;;;;;;;35.38;31.63;;;20.30;99.90;;;;;;5020997;28;20046;-54
2023/08/19 03:55:47;;;;;;;35.70;31.85;;;20.30;99.90;;;;;;5015604;28;20049;-51
2023/08/19 03:58:13;;;;;;;38.97;34.90;;;20.40;99.90;;;;;;4996422;28;20131;-52
2023/08/19 04:00:39;;;;;;;33.83;30.23;;;20.40;99.90;;;;;;5016817;28;20068;-51
2023/08/19 04:03:04;;;;;;;33.58;30.15;;;20.30;99.90;;;;;;5022960;28;20125;-54
2023/08/19 04:05:30;;;;;;;29.30;26.17;;;20.40;99.90;;;;;;5022896;28;20072;-53
2023/08/19 04:07:56;;;;;;;36.97;33.08;;;20.40;99.90;;;;;;5018139;28;20500;-52
2023/08/19 04:10:22;;;;;;;31.90;28.60;;;20.40;99.90;;;;;;5018172;28;20375;-54
2023/08/19 04:12:48;;;;;;;33.50;29.95;;;20.40;99.90;;;;;;5022102;28;20129;-54
2023/08/19 04:15:13;;;;;;;33.05;29.63;;;20.40;99.90;;;;;;4995844;28;20040;-52
2023/08/19 04:17:39;;;;;;;31.20;28.10;;;20.40;99.90;;;;;;5020486;28;20037;-52
2023/08/19 04:20:09;;;;;;;33.10;27.05;;;20.40;99.90;;;;;;5009662;28;20423;-55
2023/08/19 04:22:35;;;;;;;31.88;28.58;;;20.50;99.90;;;;;;5023503;28;20041;-55
2023/08/19 04:25:01;;;;;;;32.65;29.15;;;20.50;99.90;;;;;;5009696;28;20044;-54
2023/08/19 04:27:28;;;;;;;31.70;28.30;;;20.50;99.90;;;;;;5003848;28;20045;-53
2023/08/19 04:29:53;;;;;;;30.15;26.98;;;20.50;99.90;;;;;;5026768;28;20041;-52
2023/08/19 04:32:19;;;;;;;32.85;29.38;;;20.60;99.90;;;;;;5003275;28;20060;-52
2023/08/19 04:34:45;;;;;;;31.25;28.20;;;20.60;99.90;;;;;;5026506;28;20563;-55
2023/08/19 04:37:11;;;;;;;30.60;27.58;;;20.60;99.90;;;;;;5011034;28;20037;-55
2023/08/19 04:39:37;;;;;;;28.75;25.73;;;20.60;99.90;;;;;;5011964;28;20055;-52
2023/08/19 04:42:03;;;;;;;28.95;25.85;;;20.60;99.90;;;;;;5029126;28;20428;-54
2023/08/19 04:44:30;;;;;;;29.80;26.90;;;20.70;99.90;;;;;;5011848;28;20045;-53
2023/08/19 04:46:55;;;;;;;29.48;26.20;;;20.70;99.90;;;;;;5028635;28;20037;-55
2023/08/19 04:49:21;;;;;;;28.08;25.02;;;20.70;99.90;;;;;;5029451;28;20068;-53
2023/08/19 04:51:47;;;;;;;28.67;25.73;;;20.80;99.90;;;;;;4993645;28;20116;-55
2023/08/19 04:54:12;;;;;;;26.48;23.27;;;20.80;99.90;;;;;;5026592;28;20072;-53
2023/08/19 04:56:38;;;;;;;28.90;25.80;;;20.80;99.90;;;;;;5028659;28;20076;-55
2023/08/19 04:59:04;;;;;;;26.27;23.48;;;20.80;99.90;;;;;;5010693;28;20041;-55
2023/08/19 05:01:30;;;;;;;28.38;25.40;;;20.80;99.90;;;;;;5033292;28;20053;-53
2023/08/19 05:03:55;;;;;;;26.20;23.75;;;20.80;99.90;;;;;;5022018;28;20044;-54
2023/08/19 05:06:22;;;;;;;23.88;21.52;;;20.90;99.90;;;;;;5052310;22;20016;-54
2023/08/19 05:08:47;;;;;;;26.70;23.25;;;20.90;99.90;;;;;;5037881;28;20102;-54
2023/08/19 05:11:14;;;;;;;25.58;22.88;;;20.90;99.90;;;;;;5054016;28;20036;-54
2023/08/19 05:14:23;;;;;;;22.45;20.05;;;20.90;99.90;;;;;;5054309;28;20127;-54
2023/08/19 05:16:49;;;;;;;25.55;22.85;;;20.90;99.90;;;;;;5050023;28;20144;-54
2023/08/19 05:19:17;;;;;;;25.92;23.33;;;20.90;99.90;;;;;;5050342;28;20131;-53
2023/08/19 05:21:43;;;;;;;23.73;21.23;;;21.00;99.90;;;;;;5053869;28;20040;-53
2023/08/19 05:24:12;;;;;;;24.45;22.05;;;21.00;99.90;;;;;;5067014;28;20033;-51
2023/08/19 05:26:44;;;;;;;23.42;20.92;;;21.00;99.90;;;;;;5070492;28;20128;-54
2023/08/19 05:29:11;;;;;;;22.83;20.50;;;21.00;99.90;;;;;;5067124;28;20040;-54
2023/08/19 05:31:40;;;;;;;21.48;19.33;;;21.10;99.90;;;;;;5037012;28;20036;-55
2023/08/19 05:34:14;;;;;;;22.35;20.08;;;21.10;99.90;;;;;;5075166;28;20032;-54
2023/08/19 05:36:47;;;;;;;21.95;19.63;;;21.20;99.90;;;;;;5043127;28;20131;-53
2023/08/19 05:39:13;;;;;;;22.00;19.70;;;21.20;99.90;;;;;;5037213;28;20040;-54
2023/08/19 05:41:39;;;;;;;21.45;19.27;;;21.20;99.90;;;;;;5054989;28;20041;-56
2023/08/19 05:44:05;;;;;;;21.00;18.83;;;21.30;99.90;;;;;;5051831;28;20037;-52
2023/08/19 05:46:30;;;;;;;22.48;20.17;;;21.30;99.90;;;;;;5062961;28;20491;-55
2023/08/19 05:48:56;;;;;;;20.52;18.38;;;21.30;99.90;;;;;;5056703;28;20036;-55
2023/08/19 05:51:22;;;;;;;22.92;20.10;;;21.30;99.90;;;;;;5050159;28;20267;-54
2023/08/19 05:53:48;;;;;;;21.40;19.23;;;21.30;99.90;;;;;;5057532;28;20513;-55
2023/08/19 05:56:14;;;;;;;22.75;20.02;;;21.30;99.90;;;;;;5066299;28;20403;-55
2023/08/19 05:58:39;;;;;;;21.33;19.20;;;21.40;99.90;;;;;;5034475;28;20127;-55
2023/08/19 06:01:08;;;;;;;22.38;19.50;;;21.40;99.90;;;;;;5065650;28;20072;-52
2023/08/19 06:03:34;;;;;;;21.17;18.95;;;21.40;99.90;;;;;;5066424;28;20044;-54
2023/08/19 06:06:05;;;;;;;21.45;19.25;;;21.40;99.90;;;;;;5028760;28;20032;-54
2023/08/19 06:08:30;;;;;;;21.77;19.05;;;21.40;99.90;;;;;;5065740;28;20051;-53
2023/08/19 06:11:02;;;;;;;21.48;19.17;;;21.50;99.90;;;;;;5031904;28;20044;-54
2023/08/19 06:13:28;;;;;;;20.33;18.33;;;21.50;99.90;;;;;;5055655;28;20136;-51
2023/08/19 06:15:54;;;;;;;19.75;17.73;;;21.50;99.90;;;;;;5029080;28;20223;-54
2023/08/19 06:18:20;;;;;;;23.08;19.13;;;21.50;99.90;;;;;;5037600;28;20044;-52
2023/08/19 06:20:47;;;;;;;21.65;19.50;;;21.60;99.90;;;;;;5067638;28;20036;-51
2023/08/19 06:23:13;;;;;;;21.08;18.73;;;21.60;99.90;;;;;;5040145;28;20036;-54
2023/08/19 06:25:38;;;;;;;20.15;17.98;;;21.60;99.90;;;;;;5066658;28;20047;-54
2023/08/19 06:28:04;;;;;;;19.55;17.52;;;21.60;99.90;;;;;;5031995;28;20044;-56
2023/08/19 06:30:30;;;;;;;22.73;17.95;;;21.60;99.90;;;;;;5049553;28;20053;-53
2023/08/19 06:32:56;;;;;;;22.52;17.88;;;21.70;99.90;;;;;;5071152;28;20106;-53
2023/08/19 06:35:22;;;;;;;21.38;17.95;;;21.70;99.90;;;;;;5051465;28;20048;-54
2023/08/19 06:37:54;;;;;;;19.05;17.08;;;21.70;99.90;;;;;;5044879;28;20049;-54
2023/08/19 06:40:21;;;;;;;17.67;16.05;;;21.70;99.90;;;;;;5033594;28;20115;-54
2023/08/19 06:42:49;;;;;;;19.80;16.55;;;21.80;99.90;;;;;;5045134;28;20039;-54
2023/08/19 06:45:16;;;;;;;18.67;16.75;;;21.80;99.90;;;;;;5032148;28;20032;-54
2023/08/19 06:47:43;;;;;;;17.52;15.73;;;21.80;99.90;;;;;;5046818;28;20054;-52
2023/08/19 06:50:10;;;;;;;18.42;16.63;;;21.90;99.90;;;;;;5041916;28;20052;-54
2023/08/19 06:52:36;;;;;;;20.67;17.20;;;21.90;99.90;;;;;;5060055;28;20041;-57
2023/08/19 06:55:03;;;;;;;19.65;16.77;;;21.90;99.90;;;;;;5063585;28;20029;-52
2023/08/19 07:00:49;;;;;;;16.17;14.38;;;22.00;99.90;;;;;;5028636;28;20051;-52
2023/08/19 07:03:18;;;;;;;16.42;14.70;;;22.10;99.90;;;;;;5044606;28;20044;-52
2023/08/19 07:05:46;;;;;;;16.90;14.77;;;22.20;99.90;;;;;;5048290;28;20234;-54
2023/08/19 07:08:13;;;;;;;16.55;14.70;;;22.20;99.90;;;;;;5063010;28;20040;-54
2023/08/19 07:10:39;;;;;;;17.63;14.85;;;22.20;99.90;;;;;;5065840;28;20048;-54
2023/08/19 07:13:05;;;;;;;18.15;14.32;;;22.20;99.90;;;;;;5045688;28;20044;-54
2023/08/19 07:15:31;;;;;;;15.48;13.88;;;22.30;99.90;;;;;;5070937;28;20037;-55
2023/08/19 07:18:00;;;;;;;17.63;14.13;;;22.30;99.90;;;;;;5064580;28;20051;-54
2023/08/19 07:20:27;;;;;;;17.58;14.45;;;22.40;99.90;;;;;;5061424;28;20064;-55
2023/08/19 07:22:54;;;;;;;16.00;13.45;;;22.40;99.90;;;;;;5067097;28;20077;-53
2023/08/19 07:25:20;;;;;;;14.27;11.70;;;22.50;99.90;;;;;;5015555;28;20389;-55
2023/08/19 07:27:46;;;;;;;15.15;12.70;;;22.50;99.90;;;;;;5041945;28;20399;-55
2023/08/19 07:30:13;;;;;;;13.40;11.88;;;22.60;99.90;;;;;;5062200;28;20046;-56
2023/08/19 07:33:28;;;;;;;13.57;11.73;;;22.60;99.90;;;;;;5040748;28;20054;-55
2023/08/19 07:36:10;;;;;;;14.73;11.68;;;22.50;99.90;;;;;;5046313;28;20036;-52
2023/08/19 07:38:35;;;;;;;12.40;11.10;;;22.60;99.90;;;;;;5045971;28;20040;-53
2023/08/19 07:41:01;;;;;;;15.48;12.68;;;22.60;99.90;;;;;;5051002;28;20260;-56
2023/08/19 07:43:27;;;;;;;13.02;11.23;;;22.60;99.90;;;;;;5064808;28;20043;-55
2023/08/19 07:45:52;;;;;;;13.45;11.40;;;22.60;99.90;;;;;;5052205;28;20073;-55
2023/08/19 07:48:18;;;;;;;15.00;11.93;;;22.70;99.90;;;;;;5033319;28;20121;-54
2023/08/19 07:50:44;;;;;;;13.32;10.48;;;22.70;99.90;;;;;;5041011;28;20044;-54
2023/08/19 07:53:09;;;;;;;15.80;11.68;;;22.70;99.90;;;;;;5067487;28;20119;-55
2023/08/19 07:55:35;;;;;;;14.40;11.68;;;22.70;99.90;;;;;;5050211;28;20059;-55
2023/08/19 07:58:01;;;;;;;14.65;12.55;;;22.70;99.90;;;;;;5071020;28;20179;-53
2023/08/19 08:00:27;;;;;;;12.63;11.25;;;22.80;99.90;;;;;;5047737;28;20036;-53
2023/08/19 08:02:52;;;;;;;13.43;10.95;;;22.80;99.90;;;;;;5026714;28;20620;-53
2023/08/19 08:05:18;;;;;;;12.65;10.48;;;22.90;99.90;;;;;;5075487;28;20084;-55
2023/08/19 08:07:44;;;;;;;15.77;11.75;;;22.90;99.90;;;;;;5051259;28;20443;-59
2023/08/19 08:10:10;;;;;;;12.00;10.70;;;23.00;99.90;;;;;;5035840;28;20046;-60
2023/08/19 08:12:35;;;;;;;11.10;9.80;;;23.10;99.90;;;;;;5052255;28;20067;-54
2023/08/19 08:15:03;;;;;;;13.90;10.07;;;23.20;99.90;;;;;;5039188;28;20089;-52
2023/08/19 08:17:29;;;;;;;11.25;10.15;;;23.20;99.90;;;;;;5029316;28;20040;-53
2023/08/19 08:19:56;;;;;;;14.88;11.77;;;23.30;99.90;;;;;;5039081;28;20090;-55
2023/08/19 08:22:23;;;;;;;19.15;11.65;;;23.30;99.90;;;;;;5052177;28;20037;-57
2023/08/19 08:24:49;;;;;;;12.88;10.38;;;23.40;99.90;;;;;;5042990;28;20033;-58
2023/08/19 08:27:15;;;;;;;11.65;10.50;;;23.50;99.90;;;;;;5038713;28;20109;-53
2023/08/19 08:29:44;;;;;;;14.98;10.48;;;23.80;99.90;;;;;;5058271;28;20044;-56
2023/08/19 08:32:12;;;;;;;12.43;10.48;;;24.00;99.90;;;;;;5060009;28;20564;-52
2023/08/19 08:34:38;;;;;;;13.60;11.75;;;24.20;99.90;;;;;;5061377;28;20048;-52
2023/08/19 08:37:04;;;;;;;12.13;10.35;;;24.30;99.90;;;;;;5046430;28;20123;-57
2023/08/19 08:39:30;;;;;;;16.25;11.02;;;24.20;99.90;;;;;;5050685;28;20048;-57
2023/08/19 08:41:56;;;;;;;12.60;9.93;;;24.30;99.90;;;;;;5068686;28;20045;-55
2023/08/19 08:44:24;;;;;;;13.55;11.05;;;24.30;99.90;;;;;;5051201;28;20048;-53
2023/08/19 08:46:50;;;;;;;15.00;11.57;;;24.30;99.90;;;;;;5064767;28;20044;-54
2023/08/19 08:49:17;;;;;;;14.68;11.05;;;24.20;99.90;;;;;;5041239;28;20047;-55
2023/08/19 08:51:43;;;;;;;13.82;10.82;;;24.20;99.90;;;;;;5041223;28;20494;-57
2023/08/19 08:54:10;;;;;;;13.25;11.13;;;24.20;99.90;;;;;;5045037;28;20079;-56
2023/08/19 08:56:36;;;;;;;13.98;10.82;;;24.30;99.90;;;;;;5047319;28;20044;-53
2023/08/19 08:59:02;;;;;;;12.50;10.30;;;24.30;99.90;;;;;;5056506;28;20047;-55
2023/08/19 09:01:29;;;;;;;15.60;11.80;;;24.40;99.90;;;;;;5032835;28;20403;-55
2023/08/19 09:04:04;;;;;;;18.27;12.18;;;24.40;99.90;;;;;;5064868;28;20448;-52
2023/08/19 09:06:31;;;;;;;12.35;10.93;;;24.40;99.90;;;;;;5042495;28;20040;-57
2023/08/19 09:09:04;;;;;;;14.15;10.68;;;24.50;99.90;;;;;;5057405;28;20212;-55
2023/08/19 09:11:38;;;;;;;13.63;12.25;;;24.50;99.90;;;;;;5042457;28;20041;-56
2023/08/19 09:14:16;;;;;;;17.88;11.15;;;24.40;99.90;;;;;;5056262;28;20029;-55
2023/08/19 09:16:42;;;;;;;17.15;11.82;;;24.40;99.90;;;;;;5040632;28;20084;-57
2023/08/19 09:19:08;;;;;;;12.95;11.60;;;24.40;99.90;;;;;;5061976;28;20072;-55
2023/08/19 09:21:34;;;;;;;16.35;11.30;;;24.50;99.90;;;;;;5044482;28;20040;-55
2023/08/19 09:24:00;;;;;;;16.77;12.20;;;24.50;99.90;;;;;;5045484;28;20033;-55
2023/08/19 09:26:25;;;;;;;13.32;11.00;;;24.60;99.90;;;;;;5064585;28;20033;-55
2023/08/19 09:28:56;;;;;;;14.55;12.50;;;24.60;99.90;;;;;;5061154;28;20111;-62
2023/08/19 09:31:24;;;;;;;16.52;12.32;;;24.70;99.90;;;;;;5028480;28;20072;-55
2023/08/19 09:33:53;;;;;;;18.67;11.68;;;24.80;99.90;;;;;;5061724;28;20434;-53
2023/08/19 09:36:23;;;;;;;12.38;10.77;;;24.90;99.90;;;;;;5064311;28;20586;-54
2023/08/19 09:38:56;;;;;;;13.10;11.65;;;25.00;99.90;;;;;;5040948;28;20055;-55
2023/08/19 09:41:32;;;;;;;12.82;11.45;;;25.00;99.90;;;;;;5062101;28;20041;-57
2023/08/19 09:43:58;;;;;;;12.70;10.65;;;25.00;99.90;;;;;;5061260;28;20098;-54
2023/08/19 09:46:33;;;;;;;16.10;12.32;;;25.00;99.90;;;;;;5060792;28;20052;-52
2023/08/19 09:49:00;;;;;;;13.43;12.02;;;25.00;99.90;;;;;;5050107;28;20565;-52
2023/08/19 09:51:28;;;;;;;14.40;12.90;;;25.10;99.90;;;;;;5051011;28;20111;-58
2023/08/19 09:53:55;;;;;;;14.65;12.98;;;25.10;99.90;;;;;;5066673;28;20040;-55
2023/08/19 09:56:27;;;;;;;13.98;12.27;;;25.10;99.90;;;;;;5061743;28;20051;-55
2023/08/19 09:58:54;;;;;;;13.82;12.13;;;25.20;99.90;;;;;;5046062;28;20509;-56
2023/08/19 10:01:22;;;;;;;16.15;13.57;;;25.30;99.90;;;;;;5068236;28;20064;-55
2023/08/19 10:03:49;;;;;;;14.95;13.18;;;25.40;99.90;;;;;;5031805;28;20051;-58
2023/08/19 10:06:22;;;;;;;14.02;12.45;;;25.50;99.90;;;;;;5051334;28;20128;-56
2023/08/19 10:08:54;;;;;;;18.00;13.52;;;25.70;99.90;;;;;;5048162;28;20557;-56
2023/08/19 10:11:21;;;;;;;14.60;12.93;;;25.80;99.90;;;;;;5069163;28;20040;-55
2023/08/19 10:13:47;;;;;;;15.30;13.38;;;25.90;99.90;;;;;;5067250;28;20051;-55
2023/08/19 10:16:15;;;;;;;14.57;12.73;;;26.00;99.90;;;;;;5034361;28;20036;-57
2023/08/19 10:18:45;;;;;;;15.55;11.88;;;26.10;99.90;;;;;;5042962;28;20058;-53
2023/08/19 10:21:13;;;;;;;14.60;11.85;;;26.10;99.90;;;;;;5071590;28;20044;-54
2023/08/19 10:23:43;;;;;;;15.45;12.98;;;26.10;99.90;;;;;;5047736;28;20034;-55
2023/08/19 10:26:27;;;;;;;13.48;12.07;;;26.20;99.90;;;;;;5065860;28;20090;-52
2023/08/19 10:29:07;;;;;;;14.45;11.85;;;26.20;99.90;;;;;;5031625;28;20458;-56
2023/08/19 10:31:35;;;;;;;13.73;12.32;;;26.20;99.90;;;;;;5046074;28;20443;-56
2023/08/19 10:34:11;;;;;;;13.60;12.25;;;26.20;99.90;;;;;;5051511;28;20083;-56
2023/08/19 10:36:37;;;;;;;14.27;12.77;;;26.20;99.90;;;;;;5048714;28;20530;-59
2023/08/19 10:39:07;;;;;;;14.85;13.35;;;26.10;99.90;;;;;;5066429;28;20036;-55
2023/08/19 10:41:40;;;;;;;16.98;14.52;;;26.10;99.90;;;;;;5061153;28;20056;-54
2023/08/19 10:44:52;;;;;;;15.60;13.73;;;26.10;99.90;;;;;;5057392;28;20036;-55
2023/08/19 10:47:21;;;;;;;17.48;15.00;;;26.20;99.90;;;;;;5063715;28;20032;-53
2023/08/19 10:49:47;;;;;;;18.38;15.73;;;26.30;99.90;;;;;;5046815;28;20114;-53
2023/08/19 10:52:20;;;;;;;19.70;17.27;;;26.40;99.90;;;;;;5050531;28;20072;-60
2023/08/19 10:54:47;;;;;;;20.35;16.98;;;26.40;99.90;;;;;;5047460;28;20116;-53
2023/08/19 10:57:24;;;;;;;20.13;18.13;;;26.50;99.90;;;;;;5063521;28;20036;-54
2023/08/19 10:59:56;;;;;;;18.05;16.25;;;26.60;99.90;;;;;;5058810;28;20446;-51
2023/08/19 11:02:23;;;;;;;20.20;17.77;;;26.70;99.90;;;;;;5058554;28;20360;-58
2023/08/19 11:04:50;;;;;;;19.55;17.63;;;26.70;99.90;;;;;;5047566;28;20044;-58
2023/08/19 11:07:16;;;;;;;21.05;18.83;;;26.80;99.90;;;;;;5100760;22;20142;-52
2023/08/19 11:09:49;;;;;;;22.73;17.85;;;26.60;99.90;;;;;;5075189;28;20039;-55
2023/08/19 11:12:20;;;;;;;22.80;19.20;;;26.60;99.90;;;;;;5084906;28;20043;-55
2023/08/19 11:14:50;;;;;;;25.70;23.08;;;26.60;99.90;;;;;;5065266;28;20557;-57
2023/08/19 11:17:17;;;;;;;27.73;24.75;;;26.50;99.90;;;;;;5083567;28;20123;-55
2023/08/19 11:19:43;;;;;;;28.80;25.83;;;26.40;99.90;;;;;;5049920;28;20044;-56
2023/08/19 11:22:17;;;;;;;30.02;26.83;;;26.20;99.90;;;;;;5084655;28;20039;-57
2023/08/19 11:24:43;;;;;;;;;;;25.90;99.90;;;;;;5083306;28;20101;-56
2023/08/19 11:27:08;;;;;;;45.72;40.13;;;25.50;99.90;;;;;;5060954;28;19919;-53
2023/08/19 11:29:38;;;;;;;46.70;39.97;;;25.10;99.90;;;;;;5043751;28;20383;-56
2023/08/19 11:32:04;;;;;;;48.97;42.67;;;25.00;99.90;;;;;;5049204;28;20052;-53
2023/08/19 11:34:30;;;;;;;50.50;44.08;;;24.80;99.90;;;;;;5064363;28;20040;-53
2023/08/19 11:36:56;;;;;;;47.47;40.10;;;24.70;99.90;;;;;;5089251;28;20085;-55
2023/08/19 11:39:22;;;;;;;43.28;35.67;;;24.70;99.90;;;;;;5082259;28;20028;-56
2023/08/19 11:41:48;;;;;;;40.28;34.75;;;24.60;99.90;;;;;;5058299;28;20482;-55
2023/08/19 11:44:14;;;;;;;42.60;34.15;;;24.50;99.90;;;;;;5061844;28;20048;-54
2023/08/19 11:46:40;;;;;;;35.30;30.40;;;24.60;99.90;;;;;;5080462;28;20107;-55
2023/08/19 11:49:10;;;;;;;29.08;23.42;;;24.70;99.90;;;;;;5065952;28;20629;-57
2023/08/19 11:51:37;;;;;;;28.27;21.35;;;24.80;99.90;;;;;;5078571;28;20033;-56
2023/08/19 11:54:13;;;;;;;24.88;20.98;;;24.80;99.90;;;;;;5061554;28;20036;-54
2023/08/19 11:56:48;;;;;;;26.05;21.38;;;24.90;99.90;;;;;;5065629;28;20399;-56
2023/08/19 11:59:14;;;;;;;25.85;21.98;;;25.00;99.90;;;;;;5065821;28;20039;-55
2023/08/19 12:01:40;;;;;;;24.45;20.95;;;24.90;99.90;;;;;;5061530;28;20033;-52
2023/08/19 12:04:11;;;;;;;23.13;18.83;;;24.90;99.90;;;;;;5082911;28;20039;-56
2023/08/19 12:06:38;;;;;;;20.15;15.35;;;24.70;99.90;;;;;;5078289;28;20540;-55
2023/08/19 12:09:04;;;;;;;19.65;14.52;;;24.70;99.90;;;;;;5082892;28;20035;-54
2023/08/19 12:11:30;;;;;;;16.95;14.27;;;24.50;99.90;;;;;;5068875;28;20044;-56
2023/08/19 12:13:56;;;;;;;16.65;14.15;;;24.30;99.90;;;;;;5065842;28;20071;-54
2023/08/19 12:16:22;;;;;;;19.95;16.17;;;24.40;99.90;;;;;;5085286;28;20454;-55
2023/08/19 12:18:48;;;;;;;19.17;14.60;;;24.30;99.90;;;;;;5065894;28;21295;-56
2023/08/19 12:21:14;;;;;;;18.75;15.50;;;24.30;99.90;;;;;;5050872;28;20836;-55
2023/08/19 12:23:40;;;;;;;16.42;14.50;;;24.40;99.90;;;;;;5062418;28;20449;-56
2023/08/19 12:26:05;;;;;;;16.48;14.02;;;24.30;99.90;;;;;;5080360;28;20101;-54
2023/08/19 12:29:05;;;;;;;15.32;12.20;;;24.30;99.90;;;;;;5088438;28;20036;-54
2023/08/19 12:31:30;;;;;;;11.63;8.48;;;24.20;99.90;;;;;;5059966;28;20049;-53
2023/08/19 12:33:56;;;;;;;11.93;7.40;;;24.20;99.90;;;;;;5072352;28;20044;-55
2023/08/19 12:36:22;;;;;;;12.35;7.45;;;24.20;99.90;;;;;;5067968;28;20333;-54